Time;durP1;ratioP1;P1;durP2;ratioP2;P2;SDS_P1;SDS_P2;PMS_P1;PMS_P2;Temp;Humidity;BMP_temperature;BMP_pressure;BME280_temperature;BME280_humidity;BME280_pressure;Samples;Min_cycle;Max_cycle;Signal;HPM_P1;HPM_P2
2022/07/07 00:01:53;;;;;;;;;;;18.00;69.40;;;;;;5049162;28;19926;-77
2022/07/07 00:04:19;;;;;;;;;;;18.00;69.40;;;;;;5032639;28;19967;-78
2022/07/07 00:06:44;;;;;;;;;;;18.00;69.40;;;;;;5050441;28;19905;-79
2022/07/07 00:09:10;;;;;;;;;;;18.00;69.50;;;;;;5050333;28;20256;-78
2022/07/07 00:11:36;;;;;;;;;;;18.10;69.50;;;;;;5047828;28;19995;-79
2022/07/07 00:14:02;;;;;;;;;;;18.10;69.40;;;;;;5048837;28;19905;-78
2022/07/07 00:16:27;;;;;;;;;;;18.10;69.50;;;;;;5048587;28;19920;-78
2022/07/07 00:18:53;;;;;;;;;;;18.10;69.50;;;;;;5050172;28;19922;-78
2022/07/07 00:21:19;;;;;;;;;;;18.10;69.40;;;;;;5050248;28;20392;-79
2022/07/07 00:23:45;;;;;;;;;;;18.10;69.50;;;;;;5050233;28;20280;-78
2022/07/07 00:26:10;;;;;;;;;;;18.10;69.40;;;;;;5049969;28;20342;-78
2022/07/07 00:28:36;;;;;;;;;;;18.10;69.40;;;;;;5049770;28;19999;-79
2022/07/07 00:31:01;;;;;;;;;;;18.10;69.40;;;;;;5048580;28;19913;-77
2022/07/07 00:33:27;;;;;;;;;;;18.10;69.40;;;;;;5048517;28;19914;-77
2022/07/07 00:35:53;;;;;;;;;;;18.10;69.40;;;;;;5048397;28;19913;-78
2022/07/07 00:38:19;;;;;;;;;;;18.10;69.40;;;;;;5049624;28;19917;-78
2022/07/07 00:40:50;;;;;;;;;;;18.10;69.40;;;;;;5049766;28;19904;-78
2022/07/07 00:43:16;;;;;;;;;;;18.10;69.30;;;;;;5049588;28;19913;-78
2022/07/07 00:45:45;;;;;;;;;;;18.00;69.20;;;;;;5048147;28;20060;-78
2022/07/07 00:48:10;;;;;;;;;;;18.00;69.20;;;;;;5048327;28;19950;-79
2022/07/07 00:50:36;;;;;;;;;;;18.00;69.30;;;;;;5049558;28;19908;-77
2022/07/07 00:53:01;;;;;;;;;;;17.90;69.40;;;;;;5049542;28;19923;-78
2022/07/07 00:55:27;;;;;;;;;;;17.90;69.90;;;;;;5047931;28;20274;-78
2022/07/07 00:57:52;;;;;;;;;;;17.80;69.30;;;;;;5047886;28;19908;-78
2022/07/07 01:00:18;;;;;;;;;;;17.80;69.40;;;;;;5048383;28;20209;-78
2022/07/07 01:02:44;;;;;;;;;;;17.70;69.40;;;;;;5049107;28;19918;-77
2022/07/07 01:05:10;;;;;;;;;;;17.70;69.50;;;;;;5049029;28;19909;-78
2022/07/07 01:07:36;;;;;;;;;;;17.70;69.60;;;;;;5049141;28;19916;-79
2022/07/07 01:10:03;;;;;;;;;;;17.70;69.50;;;;;;5048531;28;20310;-75
2022/07/07 01:12:33;;;;;;;;;;;17.70;69.50;;;;;;5049788;28;19909;-77
2022/07/07 01:14:59;;;;;;;;;;;17.70;69.40;;;;;;5049518;28;19911;-78
2022/07/07 01:17:24;;;;;;;;;;;17.60;69.50;;;;;;5049261;28;19909;-78
2022/07/07 01:19:50;;;;;;;;;;;17.60;69.50;;;;;;5048040;28;20412;-78
2022/07/07 01:22:16;;;;;;;;;;;17.60;69.50;;;;;;5048610;28;19923;-77
2022/07/07 01:24:42;;;;;;;;;;;17.70;69.50;;;;;;5047948;28;19904;-79
2022/07/07 01:27:09;;;;;;;;;;;17.60;69.40;;;;;;5031239;28;19954;-79
2022/07/07 01:29:36;;;;;;;;;;;17.60;69.40;;;;;;5047602;28;19980;-78
2022/07/07 01:32:02;;;;;;;;;;;17.60;69.40;;;;;;5047482;28;19905;-78
2022/07/07 01:34:27;;;;;;;;;;;17.60;69.50;;;;;;5047488;28;20131;-78
2022/07/07 01:36:53;;;;;;;;;;;17.60;69.40;;;;;;5047615;28;19912;-78
2022/07/07 01:39:18;;;;;;;;;;;17.50;69.40;;;;;;5048549;28;20467;-78
2022/07/07 01:41:44;;;;;;;;;;;17.50;69.40;;;;;;5047257;28;19916;-77
2022/07/07 01:44:10;;;;;;;;;;;17.50;69.40;;;;;;5047259;28;19999;-79
2022/07/07 01:46:35;;;;;;;;;;;17.40;69.40;;;;;;5048729;28;19916;-77
2022/07/07 01:49:01;;;;;;;;;;;17.40;69.50;;;;;;5047051;28;19905;-78
2022/07/07 01:51:26;;;;;;;;;;;17.40;69.50;;;;;;5030412;28;19923;-77
2022/07/07 01:53:52;;;;;;;;;;;17.40;69.50;;;;;;5030318;28;20057;-78
2022/07/07 01:56:17;;;;;;;;;;;17.50;69.50;;;;;;5046809;28;19944;-78
2022/07/07 01:58:43;;;;;;;;;;;17.50;69.50;;;;;;5047198;28;19913;-78
2022/07/07 02:01:09;;;;;;;;;;;17.50;69.50;;;;;;5048349;28;20082;-79
2022/07/07 02:03:34;;;;;;;;;;;17.50;69.40;;;;;;5046997;28;19911;-79
2022/07/07 02:06:00;;;;;;;;;;;17.50;69.40;;;;;;5048092;28;19959;-78
2022/07/07 02:08:25;;;;;;;;;;;17.50;69.40;;;;;;5030373;28;20011;-77
2022/07/07 02:13:35;;;;;;;;;;;17.50;69.40;;;;;;5047389;28;20009;-77
2022/07/07 02:16:01;;;;;;;;;;;17.50;69.40;;;;;;5048051;28;19956;-79
2022/07/07 02:18:27;;;;;;;;;;;17.50;69.40;;;;;;5046870;28;19912;-79
2022/07/07 02:20:52;;;;;;;;;;;17.50;69.40;;;;;;5048413;28;19998;-79
2022/07/07 02:23:18;;;;;;;;;;;17.50;69.40;;;;;;5046812;28;20016;-79
2022/07/07 02:25:43;;;;;;;;;;;17.50;69.40;;;;;;5046520;28;19909;-77
2022/07/07 02:28:09;;;;;;;;;;;17.50;69.40;;;;;;5046785;28;19943;-79
2022/07/07 02:30:35;;;;;;;;;;;17.40;69.40;;;;;;5046744;28;20003;-78
2022/07/07 02:33:00;;;;;;;;;;;17.50;69.40;;;;;;5047959;28;19944;-78
2022/07/07 02:35:26;;;;;;;;;;;17.50;69.40;;;;;;5049142;28;19909;-79
2022/07/07 02:37:51;;;;;;;;;;;17.40;69.30;;;;;;5050433;28;19924;-77
2022/07/07 02:40:17;;;;;;;;;;;17.40;69.40;;;;;;5050490;28;19921;-79
2022/07/07 02:42:42;;;;;;;;;;;17.40;69.40;;;;;;5052051;28;19916;-77
2022/07/07 02:45:08;;;;;;;;;;;17.40;69.50;;;;;;5051632;28;19958;-77
2022/07/07 02:47:34;;;;;;;;;;;17.40;69.60;;;;;;5051002;28;19916;-78
2022/07/07 02:49:59;;;;;;;;;;;17.40;69.60;;;;;;5052451;28;20351;-78
2022/07/07 02:52:25;;;;;;;;;;;17.40;69.60;;;;;;5034021;28;19935;-77
2022/07/07 02:54:51;;;;;;;;;;;17.40;69.50;;;;;;5051956;28;19962;-78
2022/07/07 02:57:16;;;;;;;;;;;17.40;69.50;;;;;;5050438;28;19912;-79
2022/07/07 02:59:42;;;;;;;;;;;17.30;69.50;;;;;;5034298;28;19909;-79
2022/07/07 03:02:07;;;;;;;;;;;17.30;69.50;;;;;;5051891;28;19912;-79
2022/07/07 03:04:33;;;;;;;;;;;17.30;69.50;;;;;;5051471;28;19905;-77
2022/07/07 03:06:59;;;;;;;;;;;17.30;69.60;;;;;;5050189;28;19905;-79
2022/07/07 03:09:24;;;;;;;;;;;17.20;69.50;;;;;;5051825;28;19998;-78
2022/07/07 03:11:50;;;;;;;;;;;17.20;69.50;;;;;;5050294;28;19904;-78
2022/07/07 03:14:15;;;;;;;;;;;17.20;69.50;;;;;;5051533;28;20135;-78
2022/07/07 03:16:41;;;;;;;;;;;17.20;69.50;;;;;;5050005;28;20388;-79
2022/07/07 03:19:06;;;;;;;;;;;17.20;69.60;;;;;;5049945;28;19914;-77
2022/07/07 03:21:32;;;;;;;;;;;17.20;69.60;;;;;;5049966;28;19908;-79
2022/07/07 03:23:58;;;;;;;;;;;17.20;69.60;;;;;;5049954;28;19909;-79
2022/07/07 03:26:23;;;;;;;;;;;17.20;69.60;;;;;;5051295;28;19915;-78
2022/07/07 03:28:49;;;;;;;;;;;17.30;69.60;;;;;;5033158;28;19959;-78
2022/07/07 03:31:14;;;;;;;;;;;17.30;69.60;;;;;;5049898;28;19913;-78
2022/07/07 03:33:40;;;;;;;;;;;17.30;69.60;;;;;;5051509;28;20411;-78
2022/07/07 03:36:06;;;;;;;;;;;17.30;69.60;;;;;;5050689;28;19936;-78
2022/07/07 03:38:33;;;;;;;;;;;17.30;69.50;;;;;;5050723;28;19917;-77
2022/07/07 03:40:58;;;;;;;;;;;17.20;69.50;;;;;;5050894;28;20416;-78
2022/07/07 03:43:24;;;;;;;;;;;17.20;69.60;;;;;;5050750;28;19912;-77
2022/07/07 03:45:50;;;;;;;;;;;17.20;69.60;;;;;;5049057;28;19909;-79
2022/07/07 03:48:16;;;;;;;;;;;17.20;69.60;;;;;;5049302;28;19913;-77
2022/07/07 03:50:42;;;;;;;;;;;17.20;69.60;;;;;;5032573;28;19915;-78
2022/07/07 03:53:08;;;;;;;;;;;17.20;69.60;;;;;;5049233;28;20276;-79
2022/07/07 03:55:34;;;;;;;;;;;17.30;69.60;;;;;;5050252;28;19905;-78
2022/07/07 03:58:00;;;;;;;;;;;17.30;69.60;;;;;;5050380;28;19960;-78
2022/07/07 04:00:25;;;;;;;;;;;17.30;69.60;;;;;;5049162;28;19913;-78
2022/07/07 04:02:51;;;;;;;;;;;17.30;69.60;;;;;;5050495;28;19962;-79
2022/07/07 04:05:16;;;;;;;;;;;17.30;69.60;;;;;;5048964;28;19909;-78
2022/07/07 04:07:44;;;;;;;;;;;17.30;69.60;;;;;;5049129;28;19995;-79
2022/07/07 04:10:10;;;;;;;;;;;17.20;69.50;;;;;;5048659;28;19908;-77
2022/07/07 04:12:35;;;;;;;;;;;17.20;69.50;;;;;;5032259;28;20291;-78
2022/07/07 04:15:01;;;;;;;;;;;17.20;69.50;;;;;;5050179;28;19904;-78
2022/07/07 04:17:26;;;;;;;;;;;17.20;69.60;;;;;;5050184;28;20345;-78
2022/07/07 04:19:52;;;;;;;;;;;17.20;69.50;;;;;;5048720;28;19909;-78
2022/07/07 04:22:17;;;;;;;;;;;17.20;69.60;;;;;;5050066;28;20408;-77
2022/07/07 04:24:43;;;;;;;;;;;17.20;69.60;;;;;;5050113;28;19909;-78
2022/07/07 04:27:10;;;;;;;;;;;17.20;69.60;;;;;;5049340;28;19912;-78
2022/07/07 04:29:35;;;;;;;;;;;17.20;69.60;;;;;;5048859;28;19924;-78
2022/07/07 04:32:01;;;;;;;;;;;17.20;69.60;;;;;;5048763;28;19991;-79
2022/07/07 04:34:27;;;;;;;;;;;17.20;69.70;;;;;;5048415;28;20314;-78
2022/07/07 04:36:52;;;;;;;;;;;17.20;69.60;;;;;;5049784;28;19908;-78
2022/07/07 04:39:18;;;;;;;;;;;17.20;69.60;;;;;;5049632;28;19940;-78
2022/07/07 04:41:44;;;;;;;;;;;17.30;69.70;;;;;;5032024;28;19913;-79
2022/07/07 04:44:09;;;;;;;;;;;17.30;69.70;;;;;;5048347;28;19916;-78
2022/07/07 04:46:35;;;;;;;;;;;17.40;69.80;;;;;;5047939;28;20360;-78
2022/07/07 04:49:01;;;;;;;;;;;17.40;69.70;;;;;;5048240;28;20411;-78
2022/07/07 04:51:26;;;;;;;;;;;17.40;69.60;;;;;;5049835;28;19958;-78
2022/07/07 04:53:52;;;;;;;;;;;17.40;69.60;;;;;;5049593;28;19909;-78
2022/07/07 04:56:17;;;;;;;;;;;17.40;69.60;;;;;;5031183;28;19919;-78
2022/07/07 04:58:43;;;;;;;;;;;17.50;69.70;;;;;;5047133;28;19913;-78
2022/07/07 05:01:09;;;;;;;;;;;17.50;69.70;;;;;;5047761;28;20019;-77
2022/07/07 05:03:34;;;;;;;;;;;17.50;69.60;;;;;;5031285;28;19908;-77
2022/07/07 05:06:00;;;;;;;;;;;17.50;69.60;;;;;;5047770;28;19999;-78
2022/07/07 05:08:25;;;;;;;;;;;17.50;69.60;;;;;;5048133;28;19916;-78
2022/07/07 05:10:51;;;;;;;;;;;17.60;69.70;;;;;;5049091;28;20381;-77
2022/07/07 05:13:17;;;;;;;;;;;17.50;69.80;;;;;;5047915;28;20274;-78
2022/07/07 05:15:42;;;;;;;;;;;17.50;69.70;;;;;;5047496;28;20172;-78
2022/07/07 05:18:09;;;;;;;;;;;17.50;69.70;;;;;;5047851;28;19922;-78
2022/07/07 05:20:34;;;;;;;;;;;17.60;69.70;;;;;;5047562;28;20381;-78
2022/07/07 05:23:00;;;;;;;;;;;17.60;69.60;;;;;;5048778;28;19912;-78
2022/07/07 05:25:26;;;;;;;;;;;17.50;69.60;;;;;;5047533;28;20302;-78
2022/07/07 05:27:53;;;;;;;;;;;17.50;69.60;;;;;;5048523;28;19913;-78
2022/07/07 05:30:19;;;;;;;;;;;17.50;69.70;;;;;;5048394;28;20385;-79
2022/07/07 05:32:45;;;;;;;;;;;17.50;69.70;;;;;;5048568;28;20289;-77
2022/07/07 05:35:10;;;;;;;;;;;17.50;69.80;;;;;;5048415;28;19962;-78
2022/07/07 05:37:36;;;;;;;;;;;17.50;69.90;;;;;;5048397;28;20019;-78
2022/07/07 05:40:02;;;;;;;;;;;17.50;70.00;;;;;;5047099;28;20019;-77
2022/07/07 05:42:28;;;;;;;;;;;17.50;70.00;;;;;;5047145;28;20378;-79
2022/07/07 05:44:53;;;;;;;;;;;17.50;70.00;;;;;;5046975;28;19909;-79
2022/07/07 05:47:19;;;;;;;;;;;17.50;70.00;;;;;;5048151;28;20422;-78
2022/07/07 05:49:45;;;;;;;;;;;17.40;70.10;;;;;;5048529;28;19909;-78
2022/07/07 05:52:10;;;;;;;;;;;17.50;70.30;;;;;;5046799;28;19908;-79
2022/07/07 05:54:36;;;;;;;;;;;17.60;70.30;;;;;;5046555;28;19913;-77
2022/07/07 05:57:02;;;;;;;;;;;17.70;70.00;;;;;;5047860;28;19912;-78
2022/07/07 05:59:27;;;;;;;;;;;17.90;69.90;;;;;;5046801;28;19915;-78
2022/07/07 06:01:53;;;;;;;;;;;18.00;69.70;;;;;;5049163;28;19904;-79
2022/07/07 06:04:18;;;;;;;;;;;18.20;69.80;;;;;;5030432;28;19908;-78
2022/07/07 06:06:44;;;;;;;;;;;18.50;69.70;;;;;;5046929;28;19913;-79
2022/07/07 06:09:09;;;;;;;;;;;18.70;69.50;;;;;;5046714;28;20517;-79
2022/07/07 06:11:35;;;;;;;;;;;18.90;69.30;;;;;;5030311;28;19913;-77
2022/07/07 06:14:00;;;;;;;;;;;19.00;69.20;;;;;;5046595;28;19936;-78
2022/07/07 06:16:38;;;;;;;;;;;19.10;69.30;;;;;;5046538;28;20421;-79
2022/07/07 06:19:04;;;;;;;;;;;19.10;69.20;;;;;;5046877;28;19912;-78
2022/07/07 06:21:30;;;;;;;;;;;19.00;69.00;;;;;;5047944;28;19904;-78
2022/07/07 06:23:55;;;;;;;;;;;18.90;69.00;;;;;;5046443;28;19912;-78
2022/07/07 06:26:21;;;;;;;;;;;18.90;69.20;;;;;;5047764;28;19913;-79
2022/07/07 06:28:47;;;;;;;;;;;18.90;69.30;;;;;;5046341;28;20304;-79
2022/07/07 06:31:12;;;;;;;;;;;18.90;69.30;;;;;;5048033;28;20019;-77
2022/07/07 06:33:38;;;;;;;;;;;18.80;69.20;;;;;;5047562;28;19905;-78
2022/07/07 06:36:04;;;;;;;;;;;18.80;69.40;;;;;;5047733;28;20481;-79
2022/07/07 06:38:30;;;;;;;;;;;18.80;69.40;;;;;;5047327;28;20264;-78
2022/07/07 06:40:58;;;;;;;;;;;18.70;69.40;;;;;;5029357;28;19924;-78
2022/07/07 06:43:24;;;;;;;;;;;18.70;69.40;;;;;;5047255;28;19917;-78
2022/07/07 06:45:50;;;;;;;;;;;18.70;69.50;;;;;;5046477;28;19916;-78
2022/07/07 06:48:15;;;;;;;;;;;18.60;69.50;;;;;;5047190;28;19909;-78
2022/07/07 06:50:41;;;;;;;;;;;18.60;69.60;;;;;;5047111;28;19943;-78
2022/07/07 06:53:07;;;;;;;;;;;18.70;69.80;;;;;;5047259;28;19913;-79
2022/07/07 06:55:33;;;;;;;;;;;18.90;69.80;;;;;;5028815;28;19908;-78
2022/07/07 06:57:58;;;;;;;;;;;19.00;69.70;;;;;;5047286;28;20258;-79
2022/07/07 07:00:24;;;;;;;;;;;19.10;69.50;;;;;;5045402;28;19915;-78
2022/07/07 07:02:50;;;;;;;;;;;19.10;69.50;;;;;;5046033;28;20363;-78
2022/07/07 07:05:16;;;;;;;;;;;19.10;69.40;;;;;;5046841;28;19909;-79
2022/07/07 07:07:42;;;;;;;;;;;19.20;69.60;;;;;;5047190;28;19905;-78
2022/07/07 07:10:08;;;;;;;;;;;19.30;70.10;;;;;;5029312;28;19909;-79
2022/07/07 07:12:33;;;;;;;;;;;19.50;69.60;;;;;;5047171;28;19905;-79
2022/07/07 07:14:59;;;;;;;;;;;19.70;69.60;;;;;;5045936;28;19935;-79
2022/07/07 07:17:25;;;;;;;;;;;20.00;69.40;;;;;;5047149;28;19908;-77
2022/07/07 07:19:51;;;;;;;;;;;20.40;69.30;;;;;;5046466;28;19947;-79
2022/07/07 07:22:17;;;;;;;;;;;20.70;69.00;;;;;;5050273;28;19940;-78
2022/07/07 07:24:43;;;;;;;;;;;20.80;68.80;;;;;;5050796;28;19905;-78
2022/07/07 07:27:08;;;;;;;;;;;21.00;68.70;;;;;;5050631;28;20287;-77
2022/07/07 07:29:34;;;;;;;;;;;21.00;68.70;;;;;;5050910;28;20319;-78
2022/07/07 07:32:00;;;;;;;;;;;21.20;69.20;;;;;;5049395;28;20007;-79
2022/07/07 07:34:25;;;;;;;;;;;21.70;69.30;;;;;;5050590;28;20382;-78
2022/07/07 07:36:51;;;;;;;;;;;22.00;68.70;;;;;;5048909;28;19961;-79
2022/07/07 07:39:16;;;;;;;;;;;22.10;68.50;;;;;;5050080;28;19948;-78
2022/07/07 07:41:43;;;;;;;;;;;22.20;68.60;;;;;;5049030;28;19999;-77
2022/07/07 07:44:09;;;;;;;;;;;22.20;68.30;;;;;;5049377;28;19916;-79
2022/07/07 07:46:37;;;;;;;;;;;22.00;68.20;;;;;;5048861;28;19925;-79
2022/07/07 07:49:06;;;;;;;;;;;22.60;69.90;;;;;;5050111;28;19911;-80
2022/07/07 07:51:32;;;;;;;;;;;23.70;68.90;;;;;;5050503;28;19905;-79
2022/07/07 07:53:58;;;;;;;;;;;24.30;68.10;;;;;;5049883;28;19962;-79
2022/07/07 07:56:23;;;;;;;;;;;24.60;67.60;;;;;;5049765;28;19917;-79
2022/07/07 07:58:49;;;;;;;;;;;24.80;68.00;;;;;;5048501;28;20007;-79
2022/07/07 08:01:14;;;;;;;;;;;25.80;68.30;;;;;;5048471;28;20278;-76
2022/07/07 08:03:41;;;;;;;;;;;26.70;68.20;;;;;;5049806;28;19916;-78
2022/07/07 08:06:06;;;;;;;;;;;27.60;67.40;;;;;;5049676;28;19908;-77
2022/07/07 08:08:32;;;;;;;;;;;28.50;67.70;;;;;;5050120;28;19930;-76
2022/07/07 08:10:58;;;;;;;;;;;29.60;67.90;;;;;;5050494;28;20314;-78
2022/07/07 08:13:23;;;;;;;;;;;30.40;67.70;;;;;;5049171;28;20355;-77
2022/07/07 08:15:49;;;;;;;;;;;31.10;68.20;;;;;;5048864;28;19908;-77
2022/07/07 08:18:14;;;;;;;;;;;31.70;68.00;;;;;;5050227;28;20425;-79
2022/07/07 08:20:40;;;;;;;;;;;32.00;67.70;;;;;;5049383;28;20267;-79
2022/07/07 08:23:06;;;;;;;;;;;31.50;66.50;;;;;;5049354;28;19962;-77
2022/07/07 08:25:33;;;;;;;;;;;30.40;66.50;;;;;;5049752;28;19912;-78
2022/07/07 08:27:59;;;;;;;;;;;29.30;67.00;;;;;;5049932;28;19909;-78
2022/07/07 08:30:25;;;;;;;;;;;28.70;68.10;;;;;;5049891;28;20019;-78
2022/07/07 08:32:51;;;;;;;;;;;29.00;69.00;;;;;;5047232;28;19995;-78
2022/07/07 08:35:16;;;;;;;;;;;29.80;69.00;;;;;;5048894;28;19912;-76
2022/07/07 08:37:42;;;;;;;;;;;30.50;68.70;;;;;;5049269;28;19908;-77
2022/07/07 08:40:08;;;;;;;;;;;30.60;67.80;;;;;;5047411;28;20325;-78
2022/07/07 08:42:34;;;;;;;;;;;31.00;68.30;;;;;;5049197;28;20355;-78
2022/07/07 08:45:00;;;;;;;;;;;31.90;68.40;;;;;;5048907;28;19904;-78
2022/07/07 08:47:25;;;;;;;;;;;32.40;68.70;;;;;;5030713;28;19920;-78
2022/07/07 08:49:51;;;;;;;;;;;32.70;68.40;;;;;;5048237;28;20274;-78
2022/07/07 08:52:17;;;;;;;;;;;33.30;68.40;;;;;;5048312;28;19905;-80
2022/07/07 08:54:43;;;;;;;;;;;33.90;68.60;;;;;;5048819;28;19962;-77
2022/07/07 08:57:08;;;;;;;;;;;34.30;68.30;;;;;;5048771;28;19919;-78
2022/07/07 08:59:34;;;;;;;;;;;34.60;68.60;;;;;;5048959;28;19909;-79
2022/07/07 09:02:01;;;;;;;;;;;34.90;68.80;;;;;;5048068;28;19916;-79
2022/07/07 09:04:26;;;;;;;;;;;35.20;68.80;;;;;;5049073;28;20023;-78
2022/07/07 09:06:59;;;;;;;;;;;35.30;68.80;;;;;;5049653;28;19944;-78
2022/07/07 09:09:36;;;;;;;;;;;35.50;69.00;;;;;;5049011;28;20290;-74
2022/07/07 09:12:06;;;;;;;;;;;35.70;69.10;;;;;;5049459;28;20315;-77
2022/07/07 09:14:39;;;;;;;;;;;35.80;69.20;;;;;;5049484;28;19912;-77
2022/07/07 09:17:14;;;;;;;;;;;36.00;69.60;;;;;;5050396;28;19966;-76
2022/07/07 09:19:40;;;;;;;;;;;36.20;69.80;;;;;;5049788;28;19912;-70
2022/07/07 09:22:06;;;;;;;;;;;36.50;69.80;;;;;;5049788;28;19913;-78
2022/07/07 09:24:31;;;;;;;;;;;36.50;69.40;;;;;;5050095;28;19919;-77
2022/07/07 09:26:57;;;;;;;;;;;36.20;69.10;;;;;;5049341;28;20047;-76
2022/07/07 09:29:23;;;;;;;;;;;36.20;69.50;;;;;;5049456;28;19963;-77
2022/07/07 09:31:57;;;;;;;;;;;36.40;69.90;;;;;;5048768;28;19905;-77
2022/07/07 09:34:26;;;;;;;;;;;36.60;70.20;;;;;;5049600;28;19904;-77
2022/07/07 09:39:40;;;;;;;;;;;35.50;69.40;;;;;;5049245;28;20013;-78
2022/07/07 09:42:18;;;;;;;;;;;35.40;70.40;;;;;;5048858;28;19909;-78
2022/07/07 09:44:45;;;;;;;;;;;35.70;70.60;;;;;;5048699;28;19905;-77
2022/07/07 09:47:11;;;;;;;;;;;35.90;70.50;;;;;;5048765;28;20436;-75
2022/07/07 09:49:56;;;;;;;;;;;35.90;70.50;;;;;;5046001;28;19974;-79
2022/07/07 09:52:22;;;;;;;;;;;36.00;70.70;;;;;;5048504;28;20417;-76
2022/07/07 09:54:48;;;;;;;;;;;36.20;70.70;;;;;;5048900;28;20024;-77
2022/07/07 09:57:14;;;;;;;;;;;36.10;70.80;;;;;;5047442;28;20247;-78
2022/07/07 09:59:43;;;;;;;;;;;36.00;70.70;;;;;;5048817;28;19952;-75
2022/07/07 10:02:16;;;;;;;;;;;36.20;71.20;;;;;;5048116;28;19931;-76
2022/07/07 10:04:42;;;;;;;;;;;36.70;71.40;;;;;;5047159;28;19990;-79
2022/07/07 10:07:09;;;;;;;;;;;37.20;71.40;;;;;;5048379;28;19948;-78
2022/07/07 10:09:34;;;;;;;;;;;37.40;70.90;;;;;;5047579;28;20727;-77
2022/07/07 10:12:02;;;;;;;;;;;37.30;70.20;;;;;;5048583;28;19909;-78
2022/07/07 10:14:40;;;;;;;;;;;37.30;70.50;;;;;;5048680;28;19928;-79
2022/07/07 10:17:06;;;;;;;;;;;37.30;70.60;;;;;;5046859;28;19931;-78
2022/07/07 10:19:32;;;;;;;;;;;37.50;71.00;;;;;;5049102;28;20007;-78
2022/07/07 10:21:58;;;;;;;;;;;37.70;70.80;;;;;;5048726;28;20337;-78
2022/07/07 10:24:28;;;;;;;;;;;37.50;70.40;;;;;;5048677;28;19908;-77
2022/07/07 10:27:00;;;;;;;;;;;37.30;70.40;;;;;;5048371;28;19913;-74
2022/07/07 10:29:35;;;;;;;;;;;37.00;70.90;;;;;;5048600;28;20319;-76
2022/07/07 10:32:01;;;;;;;;;;;37.00;70.70;;;;;;5046801;28;20270;-78
2022/07/07 10:34:28;;;;;;;;;;;36.10;70.20;;;;;;5046971;28;19937;-79
2022/07/07 10:37:03;;;;;;;;;;;35.90;71.70;;;;;;5048375;28;19908;-79
2022/07/07 10:39:32;;;;;;;;;;;36.20;71.90;;;;;;5047947;28;19931;-76
2022/07/07 10:42:04;;;;;;;;;;;36.70;72.10;;;;;;5048275;28;19932;-78
2022/07/07 10:44:30;;;;;;;;;;;37.10;71.50;;;;;;5048292;28;19911;-77
2022/07/07 10:46:57;;;;;;;;;;;36.80;70.80;;;;;;5048083;28;19916;-77
2022/07/07 10:49:36;;;;;;;;;;;36.70;71.00;;;;;;5048141;28;19911;-77
2022/07/07 10:52:04;;;;;;;;;;;36.70;71.30;;;;;;5047197;28;19909;-78
2022/07/07 10:54:35;;;;;;;;;;;36.90;71.60;;;;;;5049789;28;19999;-75
2022/07/07 10:57:00;;;;;;;;;;;37.30;71.80;;;;;;5050710;28;20263;-78
2022/07/07 10:59:28;;;;;;;;;;;37.50;71.90;;;;;;5049946;28;19908;-77
2022/07/07 11:02:00;;;;;;;;;;;37.50;72.00;;;;;;5051565;28;19904;-77
2022/07/07 11:04:41;;;;;;;;;;;37.70;72.30;;;;;;5050989;28;19916;-79
2022/07/07 11:07:14;;;;;;;;;;;38.40;72.70;;;;;;5050256;28;19924;-78
2022/07/07 11:09:59;;;;;;;;;;;38.60;71.70;;;;;;5051289;28;20366;-78
2022/07/07 11:12:37;;;;;;;;;;;37.60;71.40;;;;;;5050480;28;19934;-78
2022/07/07 11:15:15;;;;;;;;;;;36.70;72.70;;;;;;5050287;28;19909;-77
2022/07/07 11:17:48;;;;;;;;;;;36.80;73.80;;;;;;5047457;28;19908;-77
2022/07/07 11:20:14;;;;;;;;;;;37.50;74.20;;;;;;5046190;28;19911;-77
2022/07/07 11:22:47;;;;;;;;;;;38.00;73.40;;;;;;5050988;28;20003;-76
2022/07/07 11:25:13;;;;;;;;;;;38.10;72.20;;;;;;5050824;28;19912;-74
2022/07/07 11:27:39;;;;;;;;;;;37.80;71.80;;;;;;5049946;28;20021;-76
2022/07/07 11:30:05;;;;;;;;;;;37.50;71.80;;;;;;5051068;28;20371;-75
2022/07/07 11:32:37;;;;;;;;;;;37.50;71.70;;;;;;5049839;28;19944;-76
2022/07/07 11:35:10;;;;;;;;;;;36.90;70.70;;;;;;5065793;28;19904;-75
2022/07/07 11:37:39;;;;;;;;;;;36.10;70.60;;;;;;5050556;28;19913;-77
2022/07/07 11:40:21;;;;;;;;;;;35.40;70.80;;;;;;5050998;28;20402;-76
2022/07/07 11:42:47;;;;;;;;;;;34.80;71.30;;;;;;5051652;28;19984;-76
2022/07/07 11:45:20;;;;;;;;;;;34.20;71.10;;;;;;5051153;28;20390;-75
2022/07/07 11:47:46;;;;;;;;;;;33.70;71.30;;;;;;5051060;28;19967;-77
2022/07/07 11:50:12;;;;;;;;;;;33.30;71.60;;;;;;5050986;28;19951;-77
2022/07/07 11:52:37;;;;;;;;;;;33.00;71.70;;;;;;5051147;28;19945;-78
2022/07/07 11:55:04;;;;;;;;;;;32.70;71.80;;;;;;5050453;28;19996;-75
2022/07/07 11:57:31;;;;;;;;;;;32.40;71.60;;;;;;5051127;28;19950;-74
2022/07/07 12:00:10;;;;;;;;;;;32.00;71.60;;;;;;5050784;28;19905;-78
2022/07/07 12:02:35;;;;;;;;;;;31.70;71.60;;;;;;5050510;28;19912;-76
2022/07/07 12:05:01;;;;;;;;;;;31.50;71.50;;;;;;5050524;28;20355;-75
2022/07/07 12:07:27;;;;;;;;;;;31.30;71.30;;;;;;5065539;28;19955;-77
2022/07/07 12:09:52;;;;;;;;;;;31.10;71.30;;;;;;5050802;28;20000;-75
2022/07/07 12:12:18;;;;;;;;;;;31.00;71.30;;;;;;5051256;28;19905;-76
2022/07/07 12:14:44;;;;;;;;;;;31.10;71.30;;;;;;5050025;28;19927;-76
2022/07/07 12:17:09;;;;;;;;;;;31.10;71.00;;;;;;5050048;28;20363;-75
2022/07/07 12:19:48;;;;;;;;;;;31.20;70.80;;;;;;5050505;28;19908;-77
2022/07/07 12:22:13;;;;;;;;;;;31.20;70.80;;;;;;5049129;28;20073;-76
2022/07/07 12:24:39;;;;;;;;;;;31.20;70.60;;;;;;5049971;28;20370;-77
2022/07/07 12:27:15;;;;;;;;;;;31.20;70.70;;;;;;5049151;28;20030;-78
2022/07/07 12:29:57;;;;;;;;;;;31.20;70.60;;;;;;5049683;28;19916;-78
2022/07/07 12:32:23;;;;;;;;;;;31.10;70.30;;;;;;5050425;28;20216;-78
2022/07/07 12:34:49;;;;;;;;;;;31.00;70.10;;;;;;5049665;28;19908;-78
2022/07/07 12:37:14;;;;;;;;;;;30.70;70.00;;;;;;5050247;28;19931;-77
2022/07/07 12:39:42;;;;;;;;;;;30.30;70.00;;;;;;5050515;28;20279;-74
2022/07/07 12:42:07;;;;;;;;;;;30.20;70.20;;;;;;5051893;28;19912;-78
2022/07/07 12:44:35;;;;;;;;;;;30.10;70.30;;;;;;5050530;28;19905;-78
2022/07/07 12:47:01;;;;;;;;;;;30.10;70.20;;;;;;5048742;28;19959;-77
2022/07/07 12:49:27;;;;;;;;;;;29.90;70.00;;;;;;5048816;28;20325;-76
2022/07/07 12:51:55;;;;;;;;;;;29.70;70.10;;;;;;5050112;28;20205;-76
2022/07/07 12:54:21;;;;;;;;;;;29.70;70.40;;;;;;5049668;28;19912;-75
2022/07/07 12:56:47;;;;;;;;;;;29.80;70.50;;;;;;5049828;28;20302;-75
2022/07/07 12:59:21;;;;;;;;;;;29.90;70.30;;;;;;5048732;28;20329;-78
2022/07/07 13:01:51;;;;;;;;;;;29.80;69.90;;;;;;5049050;28;20339;-80
2022/07/07 13:04:17;;;;;;;;;;;29.70;69.80;;;;;;5050439;28;20312;-78
2022/07/07 13:06:43;;;;;;;;;;;29.50;69.80;;;;;;5048213;28;19909;-73
2022/07/07 13:09:09;;;;;;;;;;;29.40;69.90;;;;;;5049651;28;20370;-75
2022/07/07 13:11:34;;;;;;;;;;;29.40;70.00;;;;;;5049415;28;19959;-75
2022/07/07 13:14:00;;;;;;;;;;;29.50;70.10;;;;;;5047586;28;20577;-78
2022/07/07 13:16:25;;;;;;;;;;;29.50;70.20;;;;;;5049902;28;19978;-79
2022/07/07 13:18:51;;;;;;;;;;;29.50;70.20;;;;;;5049306;28;19915;-82
2022/07/07 13:21:17;;;;;;;;;;;29.70;70.40;;;;;;5048843;28;19909;-78
2022/07/07 13:23:42;;;;;;;;;;;29.90;70.50;;;;;;5048789;28;19908;-78
2022/07/07 13:26:08;;;;;;;;;;;30.20;70.50;;;;;;5048371;28;20002;-76
2022/07/07 13:28:33;;;;;;;;;;;30.50;70.20;;;;;;5048225;28;19913;-78
2022/07/07 13:31:00;;;;;;;;;;;30.60;69.90;;;;;;5049251;28;20366;-79
2022/07/07 13:33:25;;;;;;;;;;;30.60;69.70;;;;;;5049173;28;19908;-76
2022/07/07 13:35:51;;;;;;;;;;;30.50;69.80;;;;;;5048806;28;19916;-77
2022/07/07 13:38:17;;;;;;;;;;;30.20;69.80;;;;;;5048901;28;19974;-75
2022/07/07 13:40:42;;;;;;;;;;;30.00;69.80;;;;;;5064719;28;19908;-76
2022/07/07 13:43:08;;;;;;;;;;;29.90;69.90;;;;;;5048891;28;19911;-78
2022/07/07 13:45:34;;;;;;;;;;;30.00;70.10;;;;;;5047944;28;20485;-76
2022/07/07 13:47:59;;;;;;;;;;;30.10;70.20;;;;;;5048518;28;19913;-78
2022/07/07 13:50:25;;;;;;;;;;;30.00;70.30;;;;;;5048221;28;20001;-78
2022/07/07 13:52:51;;;;;;;;;;;29.90;70.50;;;;;;5047024;28;19909;-75
2022/07/07 13:55:17;;;;;;;;;;;29.90;70.50;;;;;;5048081;28;19912;-77
2022/07/07 13:57:43;;;;;;;;;;;30.00;70.40;;;;;;5047723;28;19916;-77
2022/07/07 14:00:12;;;;;;;;;;;30.10;70.30;;;;;;5048171;28;19933;-77
2022/07/07 14:02:39;;;;;;;;;;;30.00;70.00;;;;;;5042746;28;19912;-76
2022/07/07 14:05:05;;;;;;;;;;;29.60;70.00;;;;;;5047853;28;19923;-79
2022/07/07 14:07:30;;;;;;;;;;;29.30;70.50;;;;;;5046675;28;20267;-80
2022/07/07 14:09:57;;;;;;;;;;;29.20;70.60;;;;;;5048551;28;20343;-80
2022/07/07 14:12:23;;;;;;;;;;;29.20;70.70;;;;;;5063943;28;19915;-79
2022/07/07 14:14:48;;;;;;;;;;;29.30;70.50;;;;;;5047825;28;19913;-77
2022/07/07 14:17:14;;;;;;;;;;;29.40;70.30;;;;;;5048238;28;19909;-77
2022/07/07 14:19:40;;;;;;;;;;;29.50;70.20;;;;;;5048038;28;20430;-76